createdAt,value
2023-01-04T00:00:55.936Z,53.82
2023-01-04T00:01:55.946Z,52.53
2023-01-04T00:02:55.966Z,52.37
2023-01-04T00:03:55.919Z,50.43
2023-01-04T00:04:55.848Z,52.21
2023-01-04T00:05:55.844Z,49.63
2023-01-04T00:06:55.831Z,47.53
2023-01-04T00:07:55.823Z,48.98
2023-01-04T00:08:55.825Z,47.86
2023-01-04T00:09:55.818Z,46.89
2023-01-04T00:10:55.797Z,49.31
2023-01-04T00:11:55.805Z,53.33
2023-01-04T00:12:55.794Z,46.41
2023-01-04T00:13:56.789Z,47.21
2023-01-04T00:14:55.784Z,46.57
2023-01-04T00:15:55.840Z,46.41
2023-01-04T00:16:55.789Z,52.21
2023-01-04T00:17:55.756Z,47.21
2023-01-04T00:18:55.760Z,47.05
2023-01-04T00:19:55.774Z,48.82
2023-01-04T00:20:55.741Z,46.57
2023-01-04T00:21:55.759Z,46.08
2023-01-04T00:22:55.722Z,46.41
2023-01-04T00:23:55.729Z,48.18
2023-01-04T00:24:55.723Z,48.50
2023-01-04T00:25:55.701Z,50.43
2023-01-04T00:26:55.820Z,49.63
2023-01-04T00:27:55.701Z,48.66
2023-01-04T00:28:55.690Z,51.24
2023-01-04T00:29:55.683Z,47.21
2023-01-04T00:30:55.763Z,49.63
2023-01-04T00:31:55.675Z,48.82
2023-01-04T00:32:55.679Z,48.66
2023-01-04T00:33:55.655Z,51.72
2023-01-04T00:34:55.660Z,49.47
2023-01-04T00:35:55.684Z,50.60
2023-01-04T00:36:55.646Z,48.02
2023-01-04T00:37:55.636Z,47.21
2023-01-04T00:38:55.644Z,49.31
2023-01-04T00:39:55.628Z,48.34
2023-01-04T00:40:55.620Z,47.86
2023-01-04T00:42:00.713Z,47.37
2023-01-04T00:42:57.594Z,51.88
2023-01-04T00:43:55.599Z,51.72
2023-01-04T00:44:55.595Z,49.63
2023-01-04T00:45:55.609Z,47.21
2023-01-04T00:46:55.578Z,47.86
2023-01-04T00:47:55.589Z,52.37
2023-01-04T00:49:00.129Z,49.95
2023-01-04T00:49:57.575Z,47.53
2023-01-04T00:50:55.572Z,47.70
2023-01-04T00:51:55.563Z,50.11
2023-01-04T00:52:55.548Z,48.98
2023-01-04T00:53:55.541Z,47.37
2023-01-04T00:54:55.537Z,48.66
2023-01-04T00:55:55.549Z,46.25
2023-01-04T00:56:55.530Z,46.41
2023-01-04T00:57:55.502Z,46.41
2023-01-04T00:58:55.512Z,47.05
2023-01-04T00:59:55.669Z,46.73
2023-01-04T01:00:55.513Z,46.57
2023-01-04T01:01:55.651Z,47.86
2023-01-04T01:02:55.643Z,47.53
2023-01-04T01:03:55.575Z,47.37
2023-01-04T01:04:55.493Z,47.53
2023-01-04T01:05:55.463Z,45.76
2023-01-04T01:06:55.446Z,45.76
2023-01-04T01:07:55.450Z,47.53
2023-01-04T01:08:55.469Z,48.18
2023-01-04T01:09:55.437Z,49.15
2023-01-04T01:10:55.423Z,47.70
2023-01-04T01:11:55.433Z,46.25
2023-01-04T01:12:55.423Z,46.57
2023-01-04T01:13:55.392Z,47.70
2023-01-04T01:15:00.333Z,47.86
2023-01-04T01:15:57.435Z,45.92
2023-01-04T01:16:58.447Z,47.37
2023-01-04T01:17:56.407Z,47.21
2023-01-04T01:18:55.356Z,51.24
2023-01-04T01:19:55.373Z,47.86
2023-01-04T01:20:55.355Z,47.37
2023-01-04T01:21:55.354Z,48.34
2023-01-04T01:22:55.341Z,46.89
2023-01-04T01:23:55.339Z,46.89
2023-01-04T01:24:55.340Z,45.76
2023-01-04T01:25:55.325Z,46.57
2023-01-04T01:26:55.320Z,49.95
2023-01-04T01:27:55.316Z,46.25
2023-01-04T01:28:55.304Z,46.41
2023-01-04T01:29:55.301Z,46.73
2023-01-04T01:30:55.327Z,48.98
2023-01-04T01:31:55.390Z,49.15
2023-01-04T01:32:55.287Z,48.18
2023-01-04T01:33:55.281Z,48.34
2023-01-04T01:34:55.297Z,49.63
2023-01-04T01:35:55.263Z,46.08
2023-01-04T01:36:55.252Z,46.41
2023-01-04T01:37:55.263Z,47.86
2023-01-04T01:38:55.249Z,46.25
2023-01-04T01:39:55.249Z,46.25
2023-01-04T01:40:55.242Z,47.37
2023-01-04T01:41:55.238Z,47.37
2023-01-04T01:42:55.218Z,46.08
2023-01-04T01:43:55.220Z,45.92
2023-01-04T01:44:55.215Z,45.76
2023-01-04T01:45:55.211Z,47.05
2023-01-04T01:46:55.348Z,50.11
2023-01-04T01:47:55.185Z,47.21
2023-01-04T01:48:55.186Z,46.73
2023-01-04T01:49:55.182Z,49.63
2023-01-04T01:50:55.175Z,48.50
2023-01-04T01:51:55.174Z,46.41
2023-01-04T01:52:55.151Z,46.73
2023-01-04T01:53:55.139Z,48.66
2023-01-04T01:54:56.140Z,45.76
2023-01-04T01:55:55.144Z,45.92
2023-01-04T01:56:55.146Z,46.89
2023-01-04T01:57:55.118Z,48.18
2023-01-04T01:58:55.101Z,48.34
2023-01-04T01:59:55.124Z,54.14
2023-01-04T02:00:55.147Z,47.05
2023-01-04T02:01:55.147Z,47.37
2023-01-04T02:02:55.244Z,46.89
2023-01-04T02:03:55.183Z,49.79
2023-01-04T02:04:55.083Z,48.82
2023-01-04T02:05:55.083Z,46.41
2023-01-04T02:06:55.121Z,46.73
2023-01-04T02:07:55.060Z,48.34
2023-01-04T02:08:55.063Z,51.08
2023-01-04T02:09:55.045Z,52.37
2023-01-04T02:10:55.048Z,52.85
2023-01-04T02:11:55.060Z,49.31
2023-01-04T02:12:55.062Z,47.37
2023-01-04T02:13:55.025Z,49.47
2023-01-04T02:14:55.036Z,48.18
2023-01-04T02:15:55.076Z,50.60
2023-01-04T02:16:55.019Z,48.66
2023-01-04T02:17:55.015Z,46.73
2023-01-04T02:18:54.994Z,47.70
2023-01-04T02:19:54.985Z,51.24
2023-01-04T02:20:54.991Z,47.37
2023-01-04T02:21:54.972Z,47.86
2023-01-04T02:22:54.958Z,48.98
2023-01-04T02:23:54.955Z,48.82
2023-01-04T02:24:54.945Z,46.73
2023-01-04T02:25:54.936Z,48.02
2023-01-04T02:26:54.952Z,49.63
2023-01-04T02:27:55.605Z,47.86
2023-01-04T02:28:54.924Z,48.82
2023-01-04T02:29:54.920Z,47.37
2023-01-04T02:30:54.938Z,48.02
2023-01-04T02:31:55.207Z,48.18
2023-01-04T02:32:54.903Z,47.05
2023-01-04T02:33:54.889Z,46.41
2023-01-04T02:34:58.499Z,47.37
2023-01-04T02:35:55.871Z,48.98
2023-01-04T02:36:54.856Z,48.98
2023-01-04T02:37:54.871Z,48.34
2023-01-04T02:38:54.861Z,46.57
2023-01-04T02:39:54.941Z,46.57
2023-01-04T02:40:54.837Z,47.05
2023-01-04T02:41:54.826Z,47.86
2023-01-04T02:42:54.835Z,47.21
2023-01-04T02:43:54.859Z,47.37
2023-01-04T02:44:54.827Z,48.50
2023-01-04T02:45:54.812Z,48.18
2023-01-04T02:46:54.863Z,47.05
2023-01-04T02:47:54.806Z,47.86
2023-01-04T02:48:54.791Z,48.66
2023-01-04T02:49:57.849Z,50.43
2023-01-04T02:50:56.778Z,50.43
2023-01-04T02:51:54.780Z,48.98
2023-01-04T02:52:54.769Z,48.18
2023-01-04T02:53:54.776Z,47.70
2023-01-04T02:54:54.750Z,46.41
2023-01-04T02:55:55.749Z,48.50
2023-01-04T02:56:58.347Z,46.89
2023-01-04T02:57:55.734Z,50.27
2023-01-04T02:58:54.746Z,49.15
2023-01-04T02:59:54.720Z,48.66
2023-01-04T03:00:54.721Z,49.63
2023-01-04T03:01:54.884Z,52.37
2023-01-04T03:02:54.866Z,47.05
2023-01-04T03:03:54.737Z,48.18
2023-01-04T03:04:54.696Z,46.89
2023-01-04T03:05:54.678Z,49.63
2023-01-04T03:06:54.683Z,48.82
2023-01-04T03:07:54.680Z,47.86
2023-01-04T03:08:54.697Z,47.21
2023-01-04T03:09:54.650Z,48.66
2023-01-04T03:10:54.711Z,49.63
2023-01-04T03:11:54.638Z,49.79
2023-01-04T03:12:54.651Z,48.66
2023-01-04T03:13:54.663Z,46.41
2023-01-04T03:14:54.631Z,46.25
2023-01-04T03:15:54.713Z,47.21
2023-01-04T03:16:54.611Z,48.18
2023-01-04T03:17:54.604Z,51.56
2023-01-04T03:18:54.601Z,48.98
2023-01-04T03:19:54.667Z,49.95
2023-01-04T03:20:54.583Z,48.18
2023-01-04T03:21:54.587Z,48.02
2023-01-04T03:22:54.583Z,48.82
2023-01-04T03:23:54.571Z,52.69
2023-01-04T03:24:54.594Z,51.40
2023-01-04T03:25:54.547Z,51.08
2023-01-04T03:26:54.589Z,50.43
2023-01-04T03:27:54.547Z,48.34
2023-01-04T03:28:54.556Z,47.86
2023-01-04T03:29:54.539Z,55.11
2023-01-04T03:30:54.591Z,54.62
2023-01-04T03:31:54.629Z,49.31
2023-01-04T03:32:54.515Z,52.37
2023-01-04T03:33:55.529Z,52.21
2023-01-04T03:34:54.515Z,48.66
2023-01-04T03:35:54.527Z,51.08
2023-01-04T03:36:54.491Z,50.27
2023-01-04T03:37:54.499Z,50.43
2023-01-04T03:38:54.465Z,48.02
2023-01-04T03:39:54.470Z,48.34
2023-01-04T03:40:54.465Z,49.63
2023-01-04T03:41:54.468Z,50.11
2023-01-04T03:42:54.449Z,48.82
2023-01-04T03:43:54.453Z,48.98
2023-01-04T03:44:54.438Z,52.69
2023-01-04T03:45:54.440Z,51.88
2023-01-04T03:46:54.474Z,51.24
2023-01-04T03:47:54.421Z,49.63
2023-01-04T03:48:54.407Z,52.21
2023-01-04T03:49:54.397Z,52.37
2023-01-04T03:50:54.419Z,51.56
2023-01-04T03:51:54.404Z,51.72
2023-01-04T03:52:54.382Z,53.66
2023-01-04T03:53:54.397Z,51.40
2023-01-04T03:54:54.378Z,50.11
2023-01-04T03:55:54.376Z,50.43
2023-01-04T03:56:54.371Z,52.05
2023-01-04T03:57:54.359Z,51.24
2023-01-04T03:58:54.342Z,51.56
2023-01-04T03:59:54.342Z,50.11
2023-01-04T04:00:54.427Z,53.33
2023-01-04T04:01:54.399Z,51.08
2023-01-04T04:02:54.371Z,53.17
2023-01-04T04:03:54.429Z,51.72
2023-01-04T04:04:54.297Z,51.56
2023-01-04T04:05:54.302Z,55.11
2023-01-04T04:06:54.293Z,52.05
2023-01-04T04:07:54.300Z,53.33
2023-01-04T04:08:54.297Z,52.37
2023-01-04T04:09:54.274Z,50.92
2023-01-04T04:10:54.285Z,53.50
2023-01-04T04:11:54.266Z,54.46
2023-01-04T04:12:54.255Z,53.66
2023-01-04T04:13:54.262Z,54.95
2023-01-04T04:14:54.279Z,54.46
2023-01-04T04:15:54.255Z,55.43
2023-01-04T04:16:54.298Z,56.72
2023-01-04T04:17:54.232Z,55.91
2023-01-04T04:18:54.237Z,54.30
2023-01-04T04:19:54.205Z,55.11
2023-01-04T04:20:54.228Z,58.17
2023-01-04T04:21:54.207Z,57.20
2023-01-04T04:22:54.196Z,56.72
2023-01-04T04:23:54.212Z,55.59
2023-01-04T04:24:54.197Z,55.27
2023-01-04T04:25:54.182Z,56.88
2023-01-04T04:26:54.180Z,57.04
2023-01-04T04:27:54.172Z,57.20
2023-01-04T04:28:54.179Z,54.79
2023-01-04T04:29:54.166Z,54.79
2023-01-04T04:30:54.148Z,56.24
2023-01-04T04:31:54.185Z,57.69
2023-01-04T04:32:54.139Z,58.97
2023-01-04T04:33:54.134Z,57.85
2023-01-04T04:34:54.155Z,56.40
2023-01-04T04:35:54.113Z,58.33
2023-01-04T04:36:54.118Z,57.04
2023-01-04T04:37:54.109Z,57.04
2023-01-04T04:38:54.132Z,57.85
2023-01-04T04:39:54.102Z,56.40
2023-01-04T04:40:54.088Z,55.91
2023-01-04T04:41:54.103Z,55.91
2023-01-04T04:42:54.083Z,58.65
2023-01-04T04:43:54.068Z,59.78
2023-01-04T04:44:54.079Z,56.40
2023-01-04T04:45:54.125Z,58.33
2023-01-04T04:46:54.076Z,58.97
2023-01-04T04:47:54.031Z,58.49
2023-01-04T04:48:54.034Z,56.72
2023-01-04T04:49:54.027Z,57.85
2023-01-04T04:50:54.049Z,58.65
2023-01-04T04:51:54.030Z,60.26
2023-01-04T04:52:56.198Z,58.97
2023-01-04T04:53:55.006Z,56.56
2023-01-04T04:54:53.991Z,56.88
2023-01-04T04:55:54.008Z,55.91
2023-01-04T04:56:53.986Z,57.04
2023-01-04T04:57:53.984Z,56.07
2023-01-04T04:58:53.988Z,57.69
2023-01-04T04:59:53.959Z,57.52
2023-01-04T05:00:54.014Z,59.46
2023-01-04T05:01:54.187Z,59.14
2023-01-04T05:02:54.117Z,54.30
2023-01-04T05:03:53.941Z,55.91
2023-01-04T05:04:53.922Z,57.36
2023-01-04T05:05:53.948Z,55.59
2023-01-04T05:06:53.918Z,57.52
2023-01-04T05:07:53.906Z,59.14
2023-01-04T05:08:53.910Z,56.24
2023-01-04T05:09:53.899Z,57.20
2023-01-04T05:10:53.899Z,58.17
2023-01-04T05:11:53.895Z,56.88
2023-01-04T05:12:57.773Z,57.85
2023-01-04T05:13:54.877Z,60.10
2023-01-04T05:14:53.871Z,58.49
2023-01-04T05:15:53.880Z,58.01
2023-01-04T05:16:53.974Z,56.40
2023-01-04T05:17:53.849Z,58.01
2023-01-04T05:18:53.849Z,58.01
2023-01-04T05:19:53.841Z,60.42
2023-01-04T05:20:53.845Z,57.52
2023-01-04T05:21:53.832Z,61.07
2023-01-04T05:22:53.808Z,60.26
2023-01-04T05:23:53.802Z,57.52
2023-01-04T05:24:53.799Z,58.17
2023-01-04T05:25:53.796Z,57.36
2023-01-04T05:26:53.784Z,58.49
2023-01-04T05:27:53.813Z,59.94
2023-01-04T05:28:54.414Z,59.62
2023-01-04T05:29:54.783Z,61.07
2023-01-04T05:30:53.961Z,61.07
2023-01-04T05:31:53.764Z,60.75
2023-01-04T05:32:53.752Z,57.04
2023-01-04T05:33:53.756Z,59.62
2023-01-04T05:34:53.739Z,61.55
2023-01-04T05:35:53.764Z,59.62
2023-01-04T05:36:53.726Z,60.42
2023-01-04T05:37:53.716Z,59.62
2023-01-04T05:38:53.712Z,60.42
2023-01-04T05:39:53.688Z,61.55
2023-01-04T05:40:53.708Z,61.07
2023-01-04T05:41:53.696Z,60.26
2023-01-04T05:42:53.680Z,58.81
2023-01-04T05:43:53.681Z,59.14
2023-01-04T05:44:53.689Z,61.55
2023-01-04T05:45:53.793Z,59.62
2023-01-04T05:46:53.694Z,61.87
2023-01-04T05:47:53.649Z,60.91
2023-01-04T05:48:53.655Z,62.04
2023-01-04T05:49:53.637Z,59.62
2023-01-04T05:50:53.803Z,61.87
2023-01-04T05:51:53.625Z,61.55
2023-01-04T05:52:53.608Z,61.39
2023-01-04T05:53:53.604Z,58.81
2023-01-04T05:54:53.597Z,59.14
2023-01-04T05:55:53.594Z,59.78
2023-01-04T05:56:53.600Z,61.23
2023-01-04T05:57:53.593Z,59.94
2023-01-04T05:58:53.573Z,59.46
2023-01-04T05:59:53.576Z,58.33
2023-01-04T06:00:53.572Z,59.30
2023-01-04T06:01:53.656Z,58.49
2023-01-04T06:02:53.776Z,59.62
2023-01-04T06:03:53.601Z,58.33
2023-01-04T06:04:58.805Z,59.14
2023-01-04T06:05:55.535Z,57.36
2023-01-04T06:06:53.531Z,56.56
2023-01-04T06:07:53.527Z,58.17
2023-01-04T06:08:53.515Z,57.36
2023-01-04T06:09:53.498Z,57.69
2023-01-04T06:10:53.487Z,60.59
2023-01-04T06:11:53.488Z,61.07
2023-01-04T06:12:53.501Z,58.01
2023-01-04T06:13:53.487Z,58.65
2023-01-04T06:14:53.491Z,59.62
2023-01-04T06:15:53.466Z,60.42
2023-01-04T06:16:53.467Z,59.14
2023-01-04T06:17:53.455Z,59.14
2023-01-04T06:18:53.449Z,61.55
2023-01-04T06:19:53.432Z,58.33
2023-01-04T06:20:53.438Z,57.36
2023-01-04T06:21:53.511Z,60.26
2023-01-04T06:22:53.444Z,58.49
2023-01-04T06:23:53.416Z,60.42
2023-01-04T06:24:53.421Z,58.17
2023-01-04T06:25:53.410Z,55.75
2023-01-04T06:26:53.428Z,58.17
2023-01-04T06:27:53.407Z,59.14
2023-01-04T06:28:53.394Z,60.42
2023-01-04T06:29:54.379Z,62.04
2023-01-04T06:30:53.480Z,56.88
2023-01-04T06:31:53.363Z,57.69
2023-01-04T06:32:53.353Z,60.26
2023-01-04T06:33:53.380Z,58.33
2023-01-04T06:34:53.341Z,57.04
2023-01-04T06:35:53.333Z,60.91
2023-01-04T06:36:53.330Z,60.59
2023-01-04T06:37:53.328Z,58.49
2023-01-04T06:38:53.346Z,60.59
2023-01-04T06:39:53.318Z,60.10
2023-01-04T06:40:53.309Z,58.81
2023-01-04T06:41:53.308Z,61.39
2023-01-04T06:42:53.291Z,59.62
2023-01-04T06:43:53.264Z,59.46
2023-01-04T06:44:53.293Z,58.65
2023-01-04T06:45:53.311Z,60.10
2023-01-04T06:46:53.271Z,62.36
2023-01-04T06:47:53.266Z,61.55
2023-01-04T06:48:53.260Z,58.65
2023-01-04T06:49:53.250Z,57.36
2023-01-04T06:50:53.237Z,57.85
2023-01-04T06:51:53.231Z,59.14
2023-01-04T06:52:53.232Z,59.94
2023-01-04T06:53:53.228Z,59.62
2023-01-04T06:54:53.220Z,59.46
2023-01-04T06:55:53.206Z,56.56
2023-01-04T06:56:53.201Z,58.33
2023-01-04T06:57:59.233Z,58.17
2023-01-04T06:58:55.194Z,58.97
2023-01-04T06:59:53.190Z,58.81
2023-01-04T07:00:53.274Z,57.36
2023-01-04T07:01:53.341Z,60.42
2023-01-04T07:03:14.144Z,61.39
2023-01-04T07:03:54.378Z,58.97
2023-01-04T07:04:53.197Z,59.94
2023-01-04T07:05:53.149Z,57.69
2023-01-04T07:06:53.157Z,56.40
2023-01-04T07:07:53.126Z,55.75
2023-01-04T07:08:53.141Z,56.56
2023-01-04T07:09:53.166Z,56.88
2023-01-04T07:10:53.124Z,58.17
2023-01-04T07:11:53.107Z,56.07
2023-01-04T07:12:53.107Z,58.01
2023-01-04T07:13:53.118Z,59.78
2023-01-04T07:14:53.095Z,57.85
2023-01-04T07:15:53.120Z,58.17
2023-01-04T07:16:53.084Z,58.97
2023-01-04T07:17:53.078Z,58.17
2023-01-04T07:18:53.091Z,60.59
2023-01-04T07:19:53.073Z,62.04
2023-01-04T07:20:53.069Z,60.26
2023-01-04T07:21:53.056Z,57.52
2023-01-04T07:22:53.060Z,58.17
2023-01-04T07:23:53.055Z,58.17
2023-01-04T07:24:54.032Z,59.30
2023-01-04T07:25:53.035Z,57.52
2023-01-04T07:26:53.017Z,57.85
2023-01-04T07:27:53.024Z,58.49
2023-01-04T07:28:53.024Z,57.85
2023-01-04T07:29:53.017Z,57.52
2023-01-04T07:30:53.050Z,60.10
2023-01-04T07:31:53.005Z,58.97
2023-01-04T07:32:52.977Z,58.97
2023-01-04T07:33:52.987Z,57.04
2023-01-04T07:34:52.970Z,58.49
2023-01-04T07:35:52.953Z,57.04
2023-01-04T07:36:52.957Z,56.40
2023-01-04T07:37:58.399Z,58.97
2023-01-04T07:38:54.957Z,56.40
2023-01-04T07:39:52.931Z,57.52
2023-01-04T07:40:55.859Z,57.69
2023-01-04T07:41:52.923Z,59.14
2023-01-04T07:42:52.908Z,60.59
2023-01-04T07:43:52.940Z,58.81
2023-01-04T07:44:52.916Z,58.65
2023-01-04T07:45:52.954Z,59.46
2023-01-04T07:46:52.943Z,59.46
2023-01-04T07:47:52.911Z,59.62
2023-01-04T07:48:52.898Z,58.65
2023-01-04T07:49:52.872Z,59.62
2023-01-04T07:50:52.869Z,60.42
2023-01-04T07:51:52.859Z,59.62
2023-01-04T07:52:52.855Z,59.94
2023-01-04T07:53:52.853Z,60.59
2023-01-04T07:54:52.836Z,60.26
2023-01-04T07:55:52.827Z,57.20
2023-01-04T07:56:52.828Z,58.65
2023-01-04T07:57:52.940Z,57.20
2023-01-04T07:58:52.836Z,57.85
2023-01-04T07:59:52.805Z,57.20
2023-01-04T08:00:52.808Z,59.62
2023-01-04T08:01:53.935Z,59.14
2023-01-04T08:02:52.925Z,57.52
2023-01-04T08:03:52.829Z,56.40
2023-01-04T08:04:52.818Z,57.85
2023-01-04T08:05:52.756Z,57.04
2023-01-04T08:06:52.753Z,56.88
2023-01-04T08:07:52.773Z,59.94
2023-01-04T08:08:52.742Z,57.69
2023-01-04T08:09:52.873Z,57.52
2023-01-04T08:10:52.733Z,58.33
2023-01-04T08:11:52.731Z,57.69
2023-01-04T08:12:52.724Z,57.85
2023-01-04T08:13:52.720Z,58.01
2023-01-04T08:14:52.985Z,56.40
2023-01-04T08:15:52.726Z,55.27
2023-01-04T08:16:52.688Z,56.56
2023-01-04T08:17:52.684Z,57.69
2023-01-04T08:18:52.695Z,61.55
2023-01-04T08:19:52.687Z,59.62
2023-01-04T08:20:58.385Z,58.97
2023-01-04T08:21:53.669Z,56.40
2023-01-04T08:22:52.648Z,59.14
2023-01-04T08:23:52.649Z,57.85
2023-01-04T08:24:52.659Z,59.78
2023-01-04T08:25:52.636Z,58.01
2023-01-04T08:26:52.637Z,58.65
2023-01-04T08:27:52.625Z,58.49
2023-01-04T08:28:52.621Z,60.10
2023-01-04T08:29:52.607Z,59.94
2023-01-04T08:30:52.671Z,58.17
2023-01-04T08:31:52.703Z,59.62
2023-01-04T08:32:52.588Z,57.69
2023-01-04T08:33:52.589Z,58.65
2023-01-04T08:34:52.599Z,58.49
2023-01-04T08:35:52.577Z,58.17
2023-01-04T08:36:52.576Z,60.75
2023-01-04T08:37:52.566Z,61.07
2023-01-04T08:39:01.340Z,57.85
2023-01-04T08:39:54.574Z,59.14
2023-01-04T08:40:59.674Z,58.49
2023-01-04T08:41:59.003Z,58.01
2023-01-04T08:42:54.535Z,60.42
2023-01-04T08:43:52.531Z,57.69
2023-01-04T08:44:58.692Z,61.07
2023-01-04T08:45:53.572Z,58.01
2023-01-04T08:46:52.618Z,59.62
2023-01-04T08:47:52.506Z,58.49
2023-01-04T08:48:52.509Z,60.10
2023-01-04T08:49:52.496Z,59.30
2023-01-04T08:50:52.486Z,58.33
2023-01-04T08:51:52.521Z,59.78
2023-01-04T08:52:52.479Z,58.01
2023-01-04T08:53:52.486Z,56.40
2023-01-04T08:54:52.467Z,54.46
2023-01-04T08:55:53.467Z,58.81
2023-01-04T08:56:52.461Z,59.30
2023-01-04T08:57:52.442Z,58.97
2023-01-04T08:58:52.434Z,60.42
2023-01-04T08:59:52.437Z,58.97
2023-01-04T09:00:52.432Z,58.17
2023-01-04T09:01:52.530Z,59.62
2023-01-04T09:02:52.555Z,58.17
2023-01-04T09:03:52.405Z,57.69
2023-01-04T09:04:52.450Z,59.78
2023-01-04T09:05:52.391Z,56.88
2023-01-04T09:06:52.419Z,57.85
2023-01-04T09:07:52.385Z,56.72
2023-01-04T09:08:52.373Z,59.62
2023-01-04T09:09:52.376Z,59.46
2023-01-04T09:10:52.371Z,57.85
2023-01-04T09:11:52.366Z,58.33
2023-01-04T09:12:52.357Z,58.81
2023-01-04T09:13:52.354Z,59.30
2023-01-04T09:14:52.331Z,60.42
2023-01-04T09:15:52.484Z,59.94
2023-01-04T09:16:52.314Z,61.55
2023-01-04T09:18:29.500Z,58.97
2023-01-04T09:18:54.325Z,60.59
2023-01-04T09:19:52.311Z,57.85
2023-01-04T09:20:52.302Z,58.33
2023-01-04T09:21:52.347Z,56.40
2023-01-04T09:22:52.346Z,57.69
2023-01-04T09:23:52.293Z,58.01
2023-01-04T09:24:52.273Z,60.26
2023-01-04T09:25:52.260Z,60.91
2023-01-04T09:26:52.256Z,60.59
2023-01-04T09:27:52.274Z,58.33
2023-01-04T09:28:52.241Z,58.65
2023-01-04T09:29:52.262Z,59.14
2023-01-04T09:30:52.252Z,59.46
2023-01-04T09:31:52.303Z,60.10
2023-01-04T09:32:52.228Z,58.33
2023-01-04T09:34:54.209Z,58.17
2023-01-04T09:35:52.204Z,58.17
2023-01-04T09:36:52.213Z,55.91
2023-01-04T09:37:52.215Z,60.26
2023-01-04T09:38:52.262Z,53.33
2023-01-04T09:39:52.175Z,58.33
2023-01-04T09:40:52.171Z,58.97
2023-01-04T09:41:52.156Z,59.14
2023-01-04T09:43:20.193Z,61.55
2023-01-04T09:43:53.155Z,57.04
2023-01-04T09:45:22.692Z,58.97
2023-01-04T09:45:54.141Z,60.42
2023-01-04T09:46:52.237Z,59.14
2023-01-04T09:47:52.125Z,58.97
2023-01-04T09:48:52.137Z,58.65
2023-01-04T09:49:52.122Z,57.36
2023-01-04T09:50:52.105Z,56.72
2023-01-04T09:51:52.102Z,58.97
2023-01-04T09:52:52.105Z,57.52
2023-01-04T09:53:52.093Z,58.49
2023-01-04T09:54:52.091Z,58.01
2023-01-04T09:55:52.071Z,58.49
2023-01-04T09:56:52.068Z,58.97
2023-01-04T09:57:52.056Z,59.30
2023-01-04T09:58:52.068Z,58.01
2023-01-04T09:59:52.061Z,58.65
2023-01-04T10:00:52.097Z,58.49
2023-01-04T10:01:52.187Z,56.72
2023-01-04T10:02:52.200Z,58.17
2023-01-04T10:03:52.153Z,58.65
2023-01-04T10:04:52.024Z,58.33
2023-01-04T10:05:52.005Z,58.81
2023-01-04T10:06:52.005Z,59.94
2023-01-04T10:07:52.003Z,58.97
2023-01-04T10:08:51.992Z,58.97
2023-01-04T10:09:52.000Z,57.36
2023-01-04T10:10:51.968Z,58.81
2023-01-04T10:11:52.984Z,59.30
2023-01-04T10:12:57.931Z,59.62
2023-01-04T10:13:52.976Z,60.26
2023-01-04T10:14:51.980Z,59.62
2023-01-04T10:15:51.994Z,56.56
2023-01-04T10:19:36.952Z,58.65
2023-01-04T10:21:30.049Z,57.85
2023-01-04T10:21:54.081Z,60.10
2023-01-04T10:22:52.012Z,58.81
2023-01-04T10:23:51.915Z,61.55
2023-01-04T10:24:52.090Z,56.56
2023-01-04T10:25:51.892Z,60.10
2023-01-04T10:26:51.909Z,58.01
2023-01-04T10:27:51.880Z,58.01
2023-01-04T10:28:51.866Z,56.72
2023-01-04T10:29:51.884Z,60.26
2023-01-04T10:30:51.856Z,60.26
2023-01-04T10:31:51.870Z,57.85
2023-01-04T10:32:51.903Z,58.01
2023-01-04T10:33:51.837Z,60.59
2023-01-04T10:34:51.848Z,58.81
2023-01-04T10:35:51.843Z,59.30
2023-01-04T10:36:51.820Z,59.94
2023-01-04T10:37:51.821Z,58.97
2023-01-04T10:38:51.802Z,58.33
2023-01-04T10:39:51.824Z,60.59
2023-01-04T10:40:51.806Z,60.10
2023-01-04T10:41:51.773Z,61.07
2023-01-04T10:42:51.947Z,57.69
2023-01-04T10:44:12.252Z,59.78
2023-01-04T10:44:52.762Z,60.42
2023-01-04T10:45:51.767Z,59.94
2023-01-04T10:46:51.793Z,59.94
2023-01-04T10:47:51.762Z,60.10
2023-01-04T10:48:51.737Z,60.91
2023-01-04T10:49:51.750Z,59.14
2023-01-04T10:50:51.723Z,58.65
2023-01-04T10:51:51.716Z,60.26
2023-01-04T10:52:51.697Z,60.42
2023-01-04T10:53:51.739Z,61.55
2023-01-04T10:54:51.728Z,60.59
2023-01-04T10:56:25.482Z,59.94
2023-01-04T10:56:52.667Z,57.36
2023-01-04T10:57:52.679Z,58.33
2023-01-04T10:58:51.677Z,60.59
2023-01-04T10:59:51.671Z,58.97
2023-01-04T11:00:51.701Z,60.10
2023-01-04T11:01:51.925Z,61.55
2023-01-04T11:02:51.966Z,61.23
2023-01-04T11:03:51.772Z,60.26
2023-01-04T11:04:51.635Z,59.14
2023-01-04T11:05:51.636Z,59.14
2023-01-04T11:06:51.635Z,59.14
2023-01-04T11:07:51.618Z,60.75
2023-01-04T11:08:51.613Z,58.33
2023-01-04T11:09:51.707Z,57.04
2023-01-04T11:10:51.601Z,60.75
2023-01-04T11:11:51.619Z,57.36
2023-01-04T11:12:51.610Z,61.07
2023-01-04T11:13:51.658Z,58.97
2023-01-04T11:14:51.576Z,58.81
2023-01-04T11:15:51.566Z,60.75
2023-01-04T11:16:51.667Z,58.49
2023-01-04T11:17:51.637Z,59.62
2023-01-04T11:18:51.539Z,60.10
2023-01-04T11:19:51.539Z,61.55
2023-01-04T11:20:51.568Z,59.62
2023-01-04T11:21:51.531Z,59.62
2023-01-04T11:22:51.614Z,60.10
2023-01-04T11:23:51.504Z,58.01
2023-01-04T11:25:32.620Z,58.17
2023-01-04T11:25:56.146Z,59.94
2023-01-04T11:26:52.582Z,58.01
2023-01-04T11:27:51.538Z,57.52
2023-01-04T11:28:52.501Z,57.69
2023-01-04T11:29:51.515Z,58.97
2023-01-04T11:30:51.648Z,59.78
2023-01-04T11:31:51.643Z,59.62
2023-01-04T11:32:51.577Z,59.94
2023-01-04T11:33:51.487Z,56.56
2023-01-04T11:34:51.431Z,57.04
2023-01-04T11:35:51.440Z,57.36
2023-01-04T11:36:51.433Z,57.52
2023-01-04T11:37:51.452Z,59.46
2023-01-04T11:38:51.439Z,57.69
2023-01-04T11:39:51.434Z,57.85
2023-01-04T11:40:51.396Z,57.69
2023-01-04T11:41:51.528Z,57.04
2023-01-04T11:42:51.404Z,58.97
2023-01-04T11:43:51.383Z,57.52
2023-01-04T11:44:51.384Z,58.65
2023-01-04T11:45:51.446Z,57.85
2023-01-04T11:46:51.376Z,60.10
2023-01-04T11:47:51.421Z,58.81
2023-01-04T11:48:51.459Z,59.62
2023-01-04T11:49:51.369Z,58.97
2023-01-04T11:50:51.357Z,58.17
2023-01-04T11:51:51.338Z,59.14
2023-01-04T11:52:51.329Z,58.81
2023-01-04T11:53:51.401Z,57.04
2023-01-04T11:54:51.305Z,59.62
2023-01-04T11:55:51.316Z,59.14
2023-01-04T11:56:51.301Z,56.56
2023-01-04T11:57:51.428Z,58.65
2023-01-04T11:58:51.295Z,56.24
2023-01-04T11:59:51.303Z,59.14
2023-01-04T12:00:51.265Z,59.94
2023-01-04T12:01:51.418Z,59.78
2023-01-04T12:03:01.399Z,60.10
2023-01-04T12:03:53.260Z,61.55
2023-01-04T12:04:51.347Z,58.81
2023-01-04T12:05:51.250Z,58.33
2023-01-04T12:06:51.241Z,56.40
2023-01-04T12:07:51.229Z,58.17
2023-01-04T12:08:51.241Z,60.59
2023-01-04T12:09:51.212Z,58.65
2023-01-04T12:10:51.240Z,59.14
2023-01-04T12:11:51.265Z,59.46
2023-01-04T12:12:51.184Z,59.94
2023-01-04T12:13:51.192Z,57.20
2023-01-04T12:14:51.183Z,61.07
2023-01-04T12:15:51.180Z,59.78
2023-01-04T12:16:51.265Z,59.62
2023-01-04T12:17:51.205Z,60.26
2023-01-04T12:18:51.168Z,60.75
2023-01-04T12:19:51.137Z,59.14
2023-01-04T12:20:51.140Z,61.71
2023-01-04T12:21:51.141Z,58.17
2023-01-04T12:22:51.121Z,57.85
2023-01-04T12:23:51.135Z,58.49
2023-01-04T12:24:56.881Z,61.39
2023-01-04T12:25:53.093Z,61.55
2023-01-04T12:26:51.103Z,61.87
2023-01-04T12:27:51.107Z,59.62
2023-01-04T12:28:51.132Z,60.42
2023-01-04T12:29:51.080Z,59.30
2023-01-04T12:30:51.084Z,58.49
2023-01-04T12:31:51.074Z,58.49
2023-01-04T12:32:51.049Z,57.04
2023-01-04T12:33:51.106Z,60.26
2023-01-04T12:34:51.069Z,59.62
2023-01-04T12:35:51.036Z,58.65
2023-01-04T12:36:51.028Z,56.24
2023-01-04T12:37:51.026Z,59.14
2023-01-04T12:38:51.042Z,61.71
2023-01-04T12:39:51.011Z,60.26
2023-01-04T12:40:50.997Z,62.04
2023-01-04T12:41:51.014Z,59.46
2023-01-04T12:42:51.000Z,57.52
2023-01-04T12:43:50.984Z,57.85
2023-01-04T12:44:51.004Z,59.78
2023-01-04T12:45:51.059Z,58.01
2023-01-04T12:46:51.030Z,60.10
2023-01-04T12:47:50.956Z,59.30
2023-01-04T12:48:50.947Z,58.17
2023-01-04T12:49:51.019Z,60.42
2023-01-04T12:50:58.208Z,58.65
2023-01-04T12:52:21.039Z,59.62
2023-01-04T12:53:52.914Z,59.62
2023-01-04T12:54:50.910Z,59.30
2023-01-04T12:55:50.910Z,61.87
2023-01-04T12:56:50.897Z,59.94
2023-01-04T12:57:50.909Z,59.30